createdAt,value
2023-02-11T00:02:36.818Z,21.70
2023-02-11T00:05:39.539Z,22.95
2023-02-11T00:08:42.156Z,21.20
2023-02-11T00:11:44.769Z,22.02
2023-02-11T00:14:47.393Z,21.55
2023-02-11T00:17:50.082Z,20.93
2023-02-11T00:20:52.461Z,20.55
2023-02-11T00:23:57.230Z,22.15
2023-02-11T00:27:00.382Z,20.77
2023-02-11T00:30:05.360Z,15.70
2023-02-11T00:33:07.745Z,20.90
2023-02-11T00:36:16.329Z,22.05
2023-02-11T00:39:20.746Z,17.37
2023-02-11T00:42:23.422Z,18.35
2023-02-11T00:45:25.775Z,20.33
2023-02-11T00:48:28.533Z,19.30
2023-02-11T00:51:30.925Z,18.65
2023-02-11T00:54:33.551Z,20.27
2023-02-11T00:57:36.173Z,19.70
2023-02-11T01:00:38.913Z,18.12
2023-02-11T01:03:42.158Z,18.13
2023-02-11T01:06:44.821Z,17.70
2023-02-11T01:09:47.257Z,16.77
2023-02-11T01:12:50.264Z,16.45
2023-02-11T01:15:53.714Z,17.27
2023-02-11T01:18:56.503Z,16.00
2023-02-11T01:21:59.093Z,14.87
2023-02-11T01:25:01.746Z,19.17
2023-02-11T01:28:04.659Z,18.75
2023-02-11T01:31:07.617Z,16.85
2023-02-11T01:34:10.048Z,17.03
2023-02-11T01:37:12.899Z,17.70
2023-02-11T01:40:17.640Z,20.60
2023-02-11T01:43:20.846Z,22.27
2023-02-11T01:46:32.287Z,20.65
2023-02-11T01:49:38.976Z,15.23
2023-02-11T01:52:42.642Z,19.27
2023-02-11T01:56:04.091Z,25.90
2023-02-11T01:59:17.256Z,22.62
2023-02-11T02:02:25.983Z,22.55
2023-02-11T02:05:35.834Z,22.93
2023-02-11T02:08:47.325Z,25.00
2023-02-11T02:11:50.460Z,21.92
2023-02-11T02:15:08.969Z,23.70
2023-02-11T02:18:14.500Z,23.73
2023-02-11T02:21:28.970Z,22.93
2023-02-11T02:25:05.721Z,22.30
2023-02-11T02:28:14.152Z,23.80
2023-02-11T02:31:28.877Z,24.45
2023-02-11T02:35:09.820Z,23.02
2023-02-11T02:38:27.534Z,24.63
2023-02-11T02:41:35.492Z,23.65
2023-02-11T02:44:38.156Z,24.27
2023-02-11T02:47:40.748Z,22.42
2023-02-11T02:50:43.774Z,22.65
2023-02-11T02:54:07.670Z,25.13
2023-02-11T02:57:25.703Z,22.25
2023-02-11T03:01:17.196Z,26.30
2023-02-11T03:04:29.567Z,22.67
2023-02-11T03:07:43.106Z,23.62
2023-02-11T03:10:50.079Z,24.77
2023-02-11T03:13:54.823Z,24.77
2023-02-11T03:17:00.484Z,26.95
2023-02-11T03:20:06.833Z,25.65
2023-02-11T03:23:15.604Z,23.92
2023-02-11T03:26:46.695Z,24.30
2023-02-11T03:30:01.480Z,23.25
2023-02-11T03:33:28.121Z,24.27
2023-02-11T03:36:55.990Z,23.98
2023-02-11T03:40:05.308Z,23.77
2023-02-11T03:43:19.357Z,24.83
2023-02-11T03:46:27.575Z,24.15
2023-02-11T03:49:33.319Z,22.02
2023-02-11T03:52:38.011Z,23.62
2023-02-11T03:55:42.211Z,25.15
2023-02-11T03:58:46.105Z,25.00
2023-02-11T04:01:48.967Z,26.67
2023-02-11T04:04:51.685Z,24.25
2023-02-11T04:07:54.142Z,25.42
2023-02-11T04:10:56.810Z,25.08
2023-02-11T04:13:59.182Z,26.20
2023-02-11T04:17:03.068Z,25.73
2023-02-11T04:20:05.779Z,24.80
2023-02-11T04:23:08.590Z,24.70
2023-02-11T04:26:10.959Z,25.12
2023-02-11T04:29:13.629Z,22.33
2023-02-11T04:32:16.195Z,23.67
2023-02-11T04:35:19.010Z,23.58
2023-02-11T04:38:23.932Z,23.58
2023-02-11T04:41:26.580Z,21.92
2023-02-11T04:44:28.994Z,22.93
2023-02-11T04:47:31.643Z,23.00
2023-02-11T04:50:34.007Z,10.43
2023-02-11T04:53:36.741Z,20.12
2023-02-11T04:56:39.508Z,19.48
2023-02-11T04:59:42.359Z,21.17
2023-02-11T05:02:44.741Z,19.05
2023-02-11T05:05:47.409Z,20.27
2023-02-11T05:08:49.995Z,21.30
2023-02-11T05:11:53.670Z,24.73
2023-02-11T05:14:56.049Z,25.70
2023-02-11T05:17:58.739Z,25.15
2023-02-11T05:21:07.123Z,27.20
2023-02-11T05:24:09.757Z,20.30
2023-02-11T05:27:12.112Z,24.92
2023-02-11T05:30:14.759Z,26.97
2023-02-11T05:33:17.173Z,28.00
2023-02-11T05:36:19.784Z,25.48
2023-02-11T05:39:22.199Z,28.42
2023-02-11T05:42:24.844Z,27.92
2023-02-11T05:45:27.285Z,31.43
2023-02-11T05:48:30.920Z,27.37
2023-02-11T05:51:33.216Z,28.67
2023-02-11T05:54:35.866Z,27.65
2023-02-11T05:57:39.417Z,27.62
2023-02-11T06:00:41.986Z,28.63
2023-02-11T06:03:44.701Z,25.90
2023-02-11T06:06:47.063Z,27.52
2023-02-11T06:09:49.757Z,27.73
2023-02-11T06:12:52.159Z,28.87
2023-02-11T06:15:59.569Z,28.27
2023-02-11T06:19:02.122Z,26.85
2023-02-11T06:22:04.939Z,29.40
2023-02-11T06:25:07.381Z,28.50
2023-02-11T06:28:10.772Z,33.30
2023-02-11T06:31:13.417Z,30.60
2023-02-11T06:34:16.090Z,29.73
2023-02-11T06:37:18.420Z,30.37
2023-02-11T06:40:21.346Z,29.80
2023-02-11T06:43:23.654Z,28.12
2023-02-11T06:46:26.434Z,25.80
2023-02-11T06:49:29.088Z,28.80
2023-02-11T06:52:32.394Z,31.15
2023-02-11T06:55:35.413Z,28.67
2023-02-11T06:58:38.386Z,30.05
2023-02-11T07:01:40.712Z,27.17
2023-02-11T07:04:43.429Z,26.45
2023-02-11T07:07:45.916Z,26.92
2023-02-11T07:10:48.842Z,25.90
2023-02-11T07:13:52.860Z,29.20
2023-02-11T07:16:55.432Z,30.60
2023-02-11T07:19:57.840Z,31.15
2023-02-11T07:23:00.801Z,33.50
2023-02-11T07:26:12.029Z,28.65
2023-02-11T07:29:14.837Z,28.27
2023-02-11T07:32:17.291Z,25.97
2023-02-11T07:35:20.026Z,26.25
2023-02-11T07:38:22.425Z,23.40
2023-02-11T07:41:26.062Z,19.83
2023-02-11T07:44:28.380Z,20.90
2023-02-11T07:47:31.011Z,19.73
2023-02-11T07:50:33.424Z,21.73
2023-02-11T07:53:36.220Z,20.15
2023-02-11T07:56:38.596Z,17.77
2023-02-11T07:59:41.238Z,18.27
2023-02-11T08:02:43.540Z,17.53
2023-02-11T08:05:46.172Z,16.58
2023-02-11T08:08:49.221Z,17.23
2023-02-11T08:11:51.853Z,17.20
2023-02-11T08:14:54.210Z,17.02
2023-02-11T08:17:57.157Z,16.77
2023-02-11T08:21:08.115Z,16.23
2023-02-11T08:24:10.988Z,15.93
2023-02-11T08:27:13.284Z,14.87
2023-02-11T08:30:15.902Z,16.52
2023-02-11T08:33:18.258Z,16.13
2023-02-11T08:36:23.774Z,18.48
2023-02-11T08:39:26.193Z,15.90
2023-02-11T08:42:28.798Z,17.10
2023-02-11T08:45:31.291Z,16.25
2023-02-11T08:48:34.058Z,17.87
2023-02-11T08:51:36.437Z,16.50
2023-02-11T08:54:39.246Z,16.95
2023-02-11T08:57:41.582Z,17.70
2023-02-11T09:00:45.350Z,19.77
2023-02-11T09:03:48.164Z,18.77
2023-02-11T09:06:50.858Z,18.25
2023-02-11T09:09:53.326Z,17.12
2023-02-11T09:12:56.041Z,17.60
2023-02-11T09:15:59.786Z,18.05
2023-02-11T09:19:04.832Z,18.13
2023-02-11T09:22:07.354Z,17.90
2023-02-11T09:25:11.366Z,19.65
2023-02-11T09:28:13.738Z,18.58
2023-02-11T09:31:19.522Z,19.02
2023-02-11T09:34:22.007Z,17.23
2023-02-11T09:37:24.645Z,18.85
2023-02-11T09:40:27.090Z,18.62
2023-02-11T09:43:44.771Z,18.48
2023-02-11T09:46:54.794Z,18.50
2023-02-11T09:50:02.512Z,19.00
2023-02-11T09:53:35.390Z,19.80
2023-02-11T09:56:38.052Z,19.33
2023-02-11T09:59:40.574Z,18.87
2023-02-11T10:03:14.257Z,19.70
2023-02-11T10:06:40.827Z,20.23
2023-02-11T10:09:55.327Z,20.65
2023-02-11T10:13:03.621Z,19.83
2023-02-11T10:16:18.039Z,19.37
2023-02-11T10:19:33.966Z,18.73
2023-02-11T10:22:52.951Z,20.23
2023-02-11T10:25:57.488Z,21.02
2023-02-11T10:29:04.877Z,19.75
2023-02-11T10:32:29.651Z,23.45
2023-02-11T10:35:32.747Z,19.87
2023-02-11T10:38:36.976Z,21.03
2023-02-11T10:41:44.477Z,19.83
2023-02-11T10:45:07.428Z,19.65
2023-02-11T10:48:40.936Z,21.05
2023-02-11T10:51:45.858Z,20.92
2023-02-11T10:55:16.180Z,20.03
2023-02-11T10:58:45.418Z,21.20
2023-02-11T11:01:52.628Z,20.25
2023-02-11T11:04:59.824Z,20.80
2023-02-11T11:08:08.748Z,21.10
2023-02-11T11:11:15.532Z,18.50
2023-02-11T11:14:22.205Z,19.35
2023-02-11T11:17:29.073Z,18.85
2023-02-11T11:20:36.282Z,20.40
2023-02-11T11:23:40.047Z,19.77
2023-02-11T11:26:45.849Z,18.43
2023-02-11T11:29:52.057Z,20.17
2023-02-11T11:32:54.920Z,18.75
2023-02-11T11:35:59.512Z,19.25
2023-02-11T11:39:15.412Z,18.98
2023-02-11T11:42:35.672Z,19.17
2023-02-11T11:45:38.080Z,17.73
2023-02-11T11:48:47.079Z,18.40
2023-02-11T11:52:15.893Z,16.12
2023-02-11T11:55:22.764Z,16.30
2023-02-11T11:58:25.129Z,12.07
2023-02-11T12:01:43.153Z,15.05
2023-02-11T12:05:05.760Z,16.35
2023-02-11T12:08:28.354Z,14.45
2023-02-11T12:11:37.231Z,13.98
2023-02-11T12:14:42.522Z,15.87
2023-02-11T12:18:38.653Z,14.52
2023-02-11T12:21:59.635Z,14.07
2023-02-11T12:25:15.123Z,14.00
2023-02-11T12:28:37.023Z,13.32
2023-02-11T12:32:08.025Z,12.87
2023-02-11T12:35:21.928Z,14.18
2023-02-11T12:38:24.472Z,12.63
2023-02-11T12:42:20.033Z,11.50
2023-02-11T12:45:35.954Z,11.73
2023-02-11T12:49:04.367Z,9.77
2023-02-11T12:52:16.183Z,10.00
2023-02-11T12:55:27.012Z,11.18
2023-02-11T12:58:44.654Z,10.15
2023-02-11T13:01:51.938Z,9.98
2023-02-11T13:04:59.039Z,10.80
2023-02-11T13:08:17.001Z,10.77
2023-02-11T13:11:41.083Z,7.57
2023-02-11T13:14:43.572Z,9.43
2023-02-11T13:18:02.249Z,10.52
2023-02-11T13:21:19.509Z,9.23
2023-02-11T13:24:34.772Z,10.07
2023-02-11T13:28:07.277Z,11.12
2023-02-11T13:31:12.671Z,10.25
2023-02-11T13:34:50.180Z,10.38
2023-02-11T13:37:52.919Z,10.13
2023-02-11T13:41:13.721Z,10.88
2023-02-11T13:44:22.336Z,9.10
2023-02-11T13:47:33.921Z,9.90
2023-02-11T13:50:47.831Z,9.43
2023-02-11T13:53:58.263Z,10.63
2023-02-11T13:57:26.988Z,10.25
2023-02-11T14:00:35.315Z,10.35
2023-02-11T14:03:58.120Z,10.23
2023-02-11T14:07:51.338Z,8.98
2023-02-11T14:11:12.819Z,11.20
2023-02-11T14:14:25.511Z,11.12
2023-02-11T14:17:33.869Z,10.88
2023-02-11T14:20:42.184Z,11.60
2023-02-11T14:23:46.064Z,11.73
2023-02-11T14:26:59.256Z,11.80
2023-02-11T14:30:32.161Z,10.73
2023-02-11T14:33:50.911Z,8.95
2023-02-11T14:37:02.655Z,8.48
2023-02-11T14:40:23.311Z,10.32
2023-02-11T14:43:31.742Z,11.17
2023-02-11T14:46:34.845Z,10.50
2023-02-11T14:49:40.761Z,11.68
2023-02-11T14:52:44.299Z,10.95
2023-02-11T14:55:54.970Z,10.98
2023-02-11T14:58:58.370Z,10.90
2023-02-11T15:02:01.146Z,10.85
2023-02-11T15:05:26.202Z,12.23
2023-02-11T15:08:30.997Z,12.18
2023-02-11T15:11:40.270Z,13.00
2023-02-11T15:14:48.326Z,11.67
2023-02-11T15:17:51.125Z,11.57
2023-02-11T15:20:54.461Z,12.07
2023-02-11T15:24:06.763Z,12.10
2023-02-11T15:27:11.803Z,12.75
2023-02-11T15:30:25.008Z,8.97
2023-02-11T15:33:30.235Z,11.15
2023-02-11T15:36:36.262Z,11.80
2023-02-11T15:39:41.256Z,12.52
2023-02-11T15:42:58.751Z,11.57
2023-02-11T15:46:02.111Z,11.73
2023-02-11T15:49:04.897Z,12.15
2023-02-11T15:52:08.382Z,12.45
2023-02-11T15:55:14.632Z,12.73
2023-02-11T15:58:17.346Z,12.95
2023-02-11T16:01:19.755Z,12.93
2023-02-11T16:04:25.566Z,12.70
2023-02-11T16:07:50.505Z,12.10
2023-02-11T16:10:59.767Z,11.73
2023-02-11T16:14:05.157Z,12.68
2023-02-11T16:17:13.442Z,12.70
2023-02-11T16:20:19.746Z,13.73
2023-02-11T16:23:33.159Z,12.25
2023-02-11T16:26:43.173Z,13.82
2023-02-11T16:29:49.825Z,12.27
2023-02-11T16:32:54.161Z,11.83
2023-02-11T16:35:57.846Z,11.68
2023-02-11T16:39:00.181Z,12.20
2023-02-11T16:42:06.442Z,13.52
2023-02-11T16:45:10.185Z,13.95
2023-02-11T16:48:18.089Z,13.57
2023-02-11T16:51:20.545Z,13.07
2023-02-11T16:54:24.219Z,13.32
2023-02-11T16:57:29.880Z,13.62
2023-02-11T17:00:33.164Z,14.02
2023-02-11T17:03:40.590Z,12.40
2023-02-11T17:06:43.289Z,14.13
2023-02-11T17:09:45.681Z,13.43
2023-02-11T17:12:49.064Z,14.13
2023-02-11T17:15:51.770Z,13.13
2023-02-11T17:18:54.889Z,12.70
2023-02-11T17:21:57.321Z,13.43
2023-02-11T17:25:00.035Z,12.80
2023-02-11T17:28:02.532Z,12.73
2023-02-11T17:31:09.506Z,13.40
2023-02-11T17:34:12.362Z,14.93
2023-02-11T17:37:15.268Z,13.07
2023-02-11T17:40:17.729Z,13.13
2023-02-11T17:43:20.329Z,14.27
2023-02-11T17:46:22.690Z,13.15
2023-02-11T17:49:25.408Z,14.83
2023-02-11T17:52:28.274Z,13.48
2023-02-11T17:55:34.079Z,13.80
2023-02-11T17:58:36.537Z,14.30
2023-02-11T18:01:41.245Z,14.85
2023-02-11T18:04:43.905Z,13.30
2023-02-11T18:07:48.033Z,14.52
2023-02-11T18:10:50.738Z,13.65
2023-02-11T18:13:54.615Z,13.18
2023-02-11T18:16:57.477Z,12.20
2023-02-11T18:19:59.866Z,12.43
2023-02-11T18:23:03.141Z,13.60
2023-02-11T18:26:10.000Z,14.35
2023-02-11T18:29:12.660Z,15.85
2023-02-11T18:32:15.238Z,14.68
2023-02-11T18:35:17.900Z,14.47
2023-02-11T18:38:20.713Z,15.65
2023-02-11T18:41:23.531Z,14.02
2023-02-11T18:44:27.449Z,12.20
2023-02-11T18:47:31.614Z,13.10
2023-02-11T18:50:34.045Z,12.97
2023-02-11T18:53:36.927Z,14.35
2023-02-11T18:56:40.481Z,13.88
2023-02-11T18:59:43.804Z,14.02
2023-02-11T19:02:46.154Z,12.48
2023-02-11T19:05:49.834Z,13.33
2023-02-11T19:08:53.910Z,14.63
2023-02-11T19:11:57.962Z,14.35
2023-02-11T19:15:00.852Z,12.27
2023-02-11T19:18:03.624Z,12.65
2023-02-11T19:21:11.348Z,11.17
2023-02-11T19:24:17.249Z,10.70
2023-02-11T19:27:19.538Z,13.55
2023-02-11T19:30:22.297Z,11.90
2023-02-11T19:33:24.684Z,12.55
2023-02-11T19:36:27.928Z,11.53
2023-02-11T19:39:31.378Z,13.70
2023-02-11T19:42:34.181Z,12.10
2023-02-11T19:45:37.845Z,13.15
2023-02-11T19:48:40.538Z,12.70
2023-02-11T19:51:43.464Z,11.80
2023-02-11T19:54:46.402Z,12.10
2023-02-11T19:57:51.675Z,13.95
2023-02-11T20:00:54.429Z,12.68
2023-02-11T20:03:57.773Z,13.48
2023-02-11T20:07:00.372Z,13.63
2023-02-11T20:10:03.381Z,13.50
2023-02-11T20:13:05.800Z,13.00
2023-02-11T20:16:12.414Z,13.05
2023-02-11T20:19:18.368Z,14.05
2023-02-11T20:22:21.265Z,11.57
2023-02-11T20:25:23.730Z,10.80
2023-02-11T20:28:26.747Z,11.65
2023-02-11T20:31:32.631Z,12.37
2023-02-11T20:34:35.461Z,12.50
2023-02-11T20:37:38.796Z,12.10
2023-02-11T20:40:44.166Z,13.15
2023-02-11T20:43:49.149Z,11.70
2023-02-11T20:46:53.855Z,13.80
2023-02-11T20:49:56.318Z,12.95
2023-02-11T20:52:59.005Z,12.37
2023-02-11T20:56:07.000Z,12.37
2023-02-11T20:59:10.053Z,12.98
2023-02-11T21:02:13.409Z,13.27
2023-02-11T21:05:16.248Z,12.55
2023-02-11T21:08:18.658Z,13.03
2023-02-11T21:11:21.317Z,12.85
2023-02-11T21:14:25.634Z,12.73
2023-02-11T21:17:28.256Z,12.65
2023-02-11T21:20:30.569Z,13.90
2023-02-11T21:23:33.218Z,12.33
2023-02-11T21:26:36.072Z,13.07
2023-02-11T21:29:52.676Z,14.13
2023-02-11T21:32:58.476Z,8.43
2023-02-11T21:36:03.594Z,13.30
2023-02-11T21:39:06.034Z,12.57
2023-02-11T21:42:08.922Z,13.45
2023-02-11T21:45:11.301Z,11.90
2023-02-11T21:48:14.859Z,12.45
2023-02-11T21:51:20.294Z,12.15
2023-02-11T21:54:25.911Z,11.87
2023-02-11T21:57:28.302Z,9.57
2023-02-11T22:00:31.812Z,13.32
2023-02-11T22:03:34.482Z,14.23
2023-02-11T22:06:36.888Z,12.85
2023-02-11T22:09:40.785Z,12.87
2023-02-11T22:12:43.414Z,14.10
2023-02-11T22:15:46.117Z,14.98
2023-02-11T22:18:48.562Z,12.30
2023-02-11T22:21:51.356Z,12.57
2023-02-11T22:24:54.097Z,11.97
2023-02-11T22:27:57.076Z,12.52
2023-02-11T22:30:59.642Z,11.80
2023-02-11T22:34:04.545Z,10.63
2023-02-11T22:37:07.640Z,10.63
2023-02-11T22:40:10.846Z,12.20
2023-02-11T22:43:13.348Z,11.02
2023-02-11T22:46:18.075Z,12.13
2023-02-11T22:49:22.270Z,12.23
2023-02-11T22:52:25.129Z,14.18
2023-02-11T22:55:27.628Z,12.93
2023-02-11T22:58:32.795Z,14.50
2023-02-11T23:01:36.759Z,13.52
2023-02-11T23:04:39.422Z,14.93
2023-02-11T23:07:41.869Z,13.30
2023-02-11T23:10:44.599Z,11.27
2023-02-11T23:13:48.930Z,13.27
2023-02-11T23:16:51.664Z,11.70
2023-02-11T23:19:54.278Z,10.95
2023-02-11T23:22:56.988Z,11.20
2023-02-11T23:25:59.312Z,12.47
2023-02-11T23:29:02.015Z,12.40
2023-02-11T23:32:05.003Z,13.93
2023-02-11T23:35:07.853Z,13.00
2023-02-11T23:38:10.320Z,12.40
2023-02-11T23:41:13.741Z,12.27
2023-02-11T23:44:16.163Z,11.07
2023-02-11T23:47:18.808Z,10.85
2023-02-11T23:50:21.323Z,12.18
2023-02-11T23:53:24.144Z,13.30
2023-02-11T23:56:27.749Z,14.60
2023-02-11T23:59:30.598Z,12.95
